Time;durP1;ratioP1;P1;durP2;ratioP2;P2;SDS_P1;SDS_P2;PMS_P1;PMS_P2;Temp;Humidity;BMP_temperature;BMP_pressure;BME280_temperature;BME280_humidity;BME280_pressure;Samples;Min_cycle;Max_cycle;Signal;HPM_P1;HPM_P2
2023/04/09 00:01:09;;;;;;;30.20;18.35;;;;;;;3.46;100.00;102715.22;5112291;28;20117;-75
2023/04/09 00:03:35;;;;;;;27.75;17.42;;;;;;;3.42;100.00;102712.69;5112192;28;20023;-75
2023/04/09 00:06:01;;;;;;;31.90;18.63;;;;;;;3.39;100.00;102718.94;5112373;28;20353;-74
2023/04/09 00:08:26;;;;;;;34.65;20.27;;;;;;;3.38;100.00;102718.97;5111843;28;20135;-74
2023/04/09 00:10:52;;;;;;;34.35;20.25;;;;;;;3.34;100.00;102715.56;5111925;28;20046;-75
2023/04/09 00:13:18;;;;;;;32.38;18.70;;;;;;;3.34;100.00;102723.47;5096156;28;20042;-75
2023/04/09 00:15:44;;;;;;;35.33;21.10;;;;;;;3.30;100.00;102721.81;5116023;28;20019;-75
2023/04/09 00:18:10;;;;;;;35.00;18.38;;;;;;;3.27;100.00;102719.28;5115943;28;20028;-74
2023/04/09 00:20:35;;;;;;;28.25;17.10;;;;;;;3.22;100.00;102719.41;5116176;28;20073;-73
2023/04/09 00:23:01;;;;;;;29.88;17.17;;;;;;;3.16;100.00;102725.75;5115902;28;20051;-74
2023/04/09 00:25:27;;;;;;;25.20;15.77;;;;;;;3.14;100.00;102717.03;5097616;28;20027;-75
2023/04/09 00:27:53;;;;;;;26.58;17.27;;;;;;;3.13;100.00;102711.81;5097354;28;20048;-74
2023/04/09 00:30:19;;;;;;;30.88;18.45;;;;;;;3.13;100.00;102710.03;5116302;28;20023;-73
2023/04/09 00:32:44;;;;;;;34.00;18.45;;;;;;;3.10;100.00;102709.25;5097209;28;20178;-73
2023/04/09 00:35:10;;;;;;;26.67;16.38;;;;;;;3.07;100.00;102710.22;5097245;28;20027;-74
2023/04/09 00:37:36;;;;;;;25.58;16.50;;;;;;;3.04;100.00;102709.44;5115634;28;20401;-75
2023/04/09 00:40:02;;;;;;;33.47;19.58;;;;;;;3.01;100.00;102697.25;5115449;28;20103;-73
2023/04/09 00:42:31;;;;;;;26.50;17.85;;;;;;;2.99;100.00;102702.53;5115659;28;20043;-74
2023/04/09 00:44:57;;;;;;;27.52;16.20;;;;;;;2.98;100.00;102706.06;5097254;28;20023;-73
2023/04/09 00:47:22;;;;;;;27.08;16.58;;;;;;;2.94;100.00;102699.19;5096698;28;20575;-75
2023/04/09 00:49:48;;;;;;;32.55;19.60;;;;;;;2.93;100.00;102704.50;5097156;28;20443;-74
2023/04/09 00:52:13;;;;;;;31.50;18.42;;;;;;;2.89;100.00;102695.81;5115279;28;20019;-73
2023/04/09 00:54:39;;;;;;;28.52;17.92;;;;;;;2.87;100.00;102696.78;5096909;28;20026;-74
2023/04/09 00:57:04;;;;;;;30.52;16.67;;;;;;;2.83;100.00;102699.47;5115320;28;20069;-74
2023/04/09 00:59:30;;;;;;;25.33;16.13;;;;;;;2.81;100.00;102695.19;5115610;28;20467;-74
2023/04/09 01:01:55;;;;;;;32.03;17.85;;;;;;;2.78;100.00;102698.75;5115013;28;20020;-74
2023/04/09 01:04:21;;;;;;;30.80;18.48;;;;;;;2.77;100.00;102706.69;5115538;28;20395;-74
2023/04/09 01:07:07;;;;;;;29.52;17.17;;;;;;;2.73;100.00;102697.16;5115730;28;20034;-73
2023/04/09 01:09:38;;;;;;;28.08;16.77;;;;;;;2.71;100.00;102699.84;5115737;28;20027;-73
2023/04/09 01:12:06;;;;;;;31.33;18.37;;;;;;;2.69;100.00;102703.41;5114828;28;20027;-75
2023/04/09 01:14:44;;;;;;;28.02;17.05;;;;;;;2.67;100.00;102697.34;5114697;28;20019;-73
2023/04/09 01:17:29;;;;;;;26.67;16.48;;;;;;;2.61;100.00;102695.72;5115335;28;20038;-73
2023/04/09 01:20:09;;;;;;;26.98;17.08;;;;;;;2.59;100.00;102692.28;5115487;28;20031;-73
2023/04/09 01:23:12;;;;;;;35.80;19.80;;;;;;;2.55;100.00;102696.75;5115854;28;20034;-76
2023/04/09 01:25:57;;;;;;;29.70;18.45;;;;;;;2.58;100.00;102695.81;5097036;28;20035;-76
2023/04/09 01:28:30;;;;;;;31.77;18.98;;;;;;;2.58;100.00;102698.44;5115751;28;20015;-76
2023/04/09 01:31:01;;;;;;;33.10;19.70;;;;;;;2.58;100.00;102698.44;5115864;28;20061;-76
2023/04/09 01:33:29;;;;;;;33.25;18.08;;;;;;;2.58;100.00;102698.44;5115658;28;20023;-77
2023/04/09 01:35:56;;;;;;;36.28;20.77;;;;;;;2.55;100.00;102702.00;5097983;28;20076;-77
2023/04/09 01:38:23;;;;;;;27.15;16.92;;;;;;;2.54;100.00;102702.06;5115681;28;20042;-77
2023/04/09 01:40:49;;;;;;;32.42;16.95;;;;;;;2.52;100.00;102698.63;5115407;28;20066;-76
2023/04/09 01:43:16;;;;;;;29.85;18.23;;;;;;;2.49;100.00;102699.56;5115283;28;20027;-77
2023/04/09 01:45:44;;;;;;;30.27;17.85;;;;;;;2.47;100.00;102704.00;5097172;28;20058;-76
2023/04/09 01:48:12;;;;;;;27.58;17.42;;;;;;;2.43;100.00;102697.97;5115378;28;20100;-76
2023/04/09 01:50:38;;;;;;;28.08;17.63;;;;;;;2.42;100.00;102695.38;5115009;28;20026;-75
2023/04/09 01:53:04;;;;;;;27.90;17.17;;;;;;;2.41;100.00;102691.88;5115554;28;20103;-75
2023/04/09 01:55:30;;;;;;;37.63;21.05;;;;;;;2.39;100.00;102691.06;5115138;28;20425;-75
2023/04/09 01:57:55;;;;;;;28.58;17.35;;;;;;;2.37;100.00;102690.22;5114694;28;20164;-76
2023/04/09 02:00:22;;;;;;;29.77;19.05;;;;;;;2.38;100.00;102691.13;5114979;28;20445;-76
2023/04/09 02:02:53;;;;;;;27.63;17.40;;;;;;;2.36;100.00;102693.78;5114989;28;20019;-76
2023/04/09 02:05:19;;;;;;;;;;;;;;;2.35;100.00;102685.94;5115609;28;20046;-75
2023/04/09 02:07:49;;;;;;;30.67;17.65;;;;;;;2.32;100.00;102686.88;5115096;28;19903;-76
2023/04/09 02:10:16;;;;;;;28.92;17.20;;;;;;;2.31;100.00;102685.13;5114909;28;20027;-76
2023/04/09 02:12:47;;;;;;;28.75;18.48;;;;;;;2.29;100.00;102684.34;5114681;28;20026;-76
2023/04/09 02:15:13;;;;;;;28.15;18.13;;;;;;;2.28;100.00;102680.84;5114504;28;20070;-76
2023/04/09 02:17:38;;;;;;;30.67;17.55;;;;;;;2.28;100.00;102674.72;5114518;28;20457;-75
2023/04/09 02:20:04;;;;;;;26.00;16.67;;;;;;;2.28;100.00;102674.72;5114605;28;20031;-76
2023/04/09 02:22:30;;;;;;;27.60;17.17;;;;;;;2.26;100.00;102677.38;5095898;28;20019;-75
2023/04/09 02:24:55;;;;;;;29.15;17.90;;;;;;;2.26;100.00;102677.38;5114140;28;20027;-75
2023/04/09 02:27:20;;;;;;;30.65;18.98;;;;;;;2.26;100.00;102671.28;5096327;28;20110;-76
2023/04/09 02:29:46;;;;;;;26.42;16.73;;;;;;;2.25;100.00;102664.28;5114348;28;20480;-76
2023/04/09 02:32:11;;;;;;;29.45;18.08;;;;;;;2.24;100.00;102670.44;5114599;28;20031;-75
2023/04/09 02:34:36;;;;;;;36.00;20.63;;;;;;;2.24;100.00;102670.44;5113701;28;20110;-74
2023/04/09 02:37:02;;;;;;;29.13;19.13;;;;;;;2.23;100.00;102666.09;5114313;28;20063;-75
2023/04/09 02:39:27;;;;;;;32.55;19.45;;;;;;;2.21;100.00;102675.78;5095789;28;20080;-76
2023/04/09 02:41:53;;;;;;;26.52;17.42;;;;;;;2.19;100.00;102675.81;5096349;28;20030;-76
2023/04/09 02:44:18;;;;;;;30.25;17.80;;;;;;;2.15;100.00;102663.69;5113965;28;20096;-76
2023/04/09 02:46:46;;;;;;;34.47;20.30;;;;;;;2.16;100.00;102661.91;5096656;28;20031;-74
2023/04/09 02:49:11;;;;;;;36.10;20.33;;;;;;;2.16;100.00;102664.53;5114063;28;20019;-75
2023/04/09 02:51:36;;;;;;;28.67;17.08;;;;;;;2.15;100.00;102666.31;5114282;28;20034;-75
2023/04/09 02:54:03;;;;;;;32.85;19.15;;;;;;;2.15;100.00;102658.44;5114324;28;20032;-75
2023/04/09 02:56:28;;;;;;;32.95;19.25;;;;;;;2.15;100.00;102655.81;5113784;28;20055;-75
2023/04/09 02:58:54;;;;;;;33.75;19.08;;;;;;;2.14;100.00;102648.81;5113820;28;20028;-75
2023/04/09 03:01:19;;;;;;;34.95;20.30;;;;;;;2.13;100.00;102646.22;5095691;28;20027;-75
2023/04/09 03:03:45;;;;;;;32.80;19.02;;;;;;;2.11;100.00;102648.91;5113725;28;20035;-75
2023/04/09 03:06:11;;;;;;;32.85;19.05;;;;;;;2.09;100.00;102643.69;5113543;28;20446;-76
2023/04/09 03:08:36;;;;;;;31.67;18.75;;;;;;;2.10;100.00;102655.91;5095617;28;20055;-76
2023/04/09 03:11:02;;;;;;;29.23;18.05;;;;;;;2.11;100.00;102648.91;5113631;28;20118;-76
2023/04/09 03:13:27;;;;;;;34.13;20.35;;;;;;;2.08;100.00;102649.84;5095532;28;20023;-76
2023/04/09 03:15:53;;;;;;;30.77;19.30;;;;;;;2.09;100.00;102643.69;5113978;28;20096;-75
2023/04/09 03:18:18;;;;;;;31.80;17.90;;;;;;;2.10;100.00;102641.91;5095902;28;20236;-76
2023/04/09 03:20:44;;;;;;;27.92;17.60;;;;;;;2.11;100.00;102635.78;5113128;28;20031;-75
2023/04/09 03:23:10;;;;;;;30.75;17.50;;;;;;;2.15;100.00;102647.94;5114010;28;20023;-76
2023/04/09 03:25:35;;;;;;;26.73;17.02;;;;;;;2.22;100.00;102638.97;5113715;28;20341;-76
2023/04/09 03:28:00;;;;;;;33.08;19.80;;;;;;;2.31;100.00;102637.84;5113930;28;20409;-76
2023/04/09 03:30:26;;;;;;;32.13;19.38;;;;;;;2.42;100.00;102640.22;5095104;28;20126;-75
2023/04/09 03:32:51;;;;;;;32.65;18.25;;;;;;;2.52;100.00;102633.78;5113015;28;20055;-75
2023/04/09 03:35:16;;;;;;;32.33;18.27;;;;;;;2.61;100.00;102627.41;5095068;28;20457;-76
2023/04/09 03:37:42;;;;;;;31.15;17.60;;;;;;;2.72;100.00;102624.47;5095000;28;20028;-75
2023/04/09 03:40:08;;;;;;;41.63;22.23;;;;;;;2.82;100.00;102618.91;5112821;28;20031;-76
2023/04/09 03:42:34;;;;;;;37.28;20.58;;;;;;;2.94;100.00;102619.44;5113222;28;20110;-76
2023/04/09 03:44:59;;;;;;;37.40;21.98;;;;;;;3.05;100.00;102617.34;5113626;28;20063;-76
2023/04/09 03:47:25;;;;;;;42.10;23.20;;;;;;;3.15;100.00;102621.44;5114369;28;20035;-76
2023/04/09 03:49:50;;;;;;;43.08;23.35;;;;;;;3.25;100.00;102623.75;5117431;28;20031;-75
2023/04/09 03:52:15;;;;;;;47.17;25.00;;;;;;;3.35;100.00;102623.41;5117762;28;20030;-76
2023/04/09 03:54:42;;;;;;;49.42;24.65;;;;;;;3.45;100.00;102623.13;5099156;28;20202;-76
2023/04/09 03:57:07;;;;;;;41.40;23.63;;;;;;;3.53;100.00;102624.59;5117287;28;20055;-76
2023/04/09 03:59:33;;;;;;;48.10;24.92;;;;;;;3.64;100.00;102631.28;5099143;28;20030;-76
2023/04/09 04:01:58;;;;;;;52.55;26.55;;;;;;;3.74;100.00;102630.06;5117824;28;20024;-76
2023/04/09 04:04:24;;;;;;;51.50;25.40;;;;;;;3.82;100.00;102621.91;5117701;28;20114;-76
2023/04/09 04:06:49;;;;;;;46.40;24.17;;;;;;;3.89;100.00;102624.28;5117660;28;20533;-75
2023/04/09 04:09:14;;;;;;;50.03;25.45;;;;;;;3.96;100.00;102624.94;5133694;27;20027;-76
2023/04/09 04:11:40;;;;;;;45.55;25.52;;;;;;;4.02;100.00;102631.78;5117092;28;20062;-76
2023/04/09 04:14:05;;;;;;;46.00;23.90;;;;;;;4.06;100.00;102623.72;5132815;27;20097;-76
2023/04/09 04:16:31;;;;;;;44.78;25.02;;;;;;;4.12;100.00;102627.06;5117537;28;20035;-76
2023/04/09 04:18:56;;;;;;;53.55;25.83;;;;;;;4.17;100.00;102620.72;5098740;28;20097;-76
2023/04/09 04:21:22;;;;;;;53.42;26.92;;;;;;;4.26;100.00;102621.31;5117481;28;20039;-76
2023/04/09 04:23:47;;;;;;;60.78;29.35;;;;;;;4.34;100.00;102627.16;5116847;28;20024;-75
2023/04/09 04:26:12;;;;;;;53.60;26.20;;;;;;;4.40;100.00;102624.28;5116861;28;20035;-76
2023/04/09 04:28:39;;;;;;;57.58;27.77;;;;;;;4.46;100.00;102624.06;5116809;28;20023;-75
2023/04/09 04:31:11;;;;;;;51.22;26.80;;;;;;;4.52;100.00;102621.25;5117305;28;20110;-75
2023/04/09 04:33:39;;;;;;;51.40;25.95;;;;;;;4.60;100.00;102618.31;5116370;28;20024;-75
2023/04/09 04:36:09;;;;;;;61.30;27.33;;;;;;;4.68;100.00;102621.50;5116660;28;20031;-75
2023/04/09 04:38:35;;;;;;;52.88;25.75;;;;;;;4.74;100.00;102617.78;5117563;28;20030;-76
2023/04/09 04:41:01;;;;;;;57.03;27.05;;;;;;;4.81;100.00;102624.56;5098180;28;20077;-76
2023/04/09 04:43:27;;;;;;;53.65;26.15;;;;;;;4.88;100.00;102628.69;5098230;28;20023;-76
2023/04/09 04:45:53;;;;;;;57.17;27.10;;;;;;;4.93;100.00;102623.25;5116729;28;20413;-74
2023/04/09 04:48:18;;;;;;;53.65;26.35;;;;;;;4.96;100.00;102631.03;5116725;28;20077;-75
2023/04/09 04:50:44;;;;;;;51.97;26.58;;;;;;;5.00;100.00;102626.47;5098773;28;20081;-75
2023/04/09 04:53:09;;;;;;;53.17;26.02;;;;;;;5.04;100.00;102636.00;5116282;28;20024;-76
2023/04/09 04:55:35;;;;;;;47.80;25.65;;;;;;;5.08;100.00;102632.34;5116317;28;20406;-76
2023/04/09 04:58:01;;;;;;;50.17;25.48;;;;;;;5.11;100.00;102646.25;5116233;28;20479;-76
2023/04/09 05:00:26;;;;;;;48.05;26.00;;;;;;;5.13;100.00;102640.91;5116155;28;20498;-76
2023/04/09 05:02:52;;;;;;;50.03;25.48;;;;;;;5.19;100.00;102645.09;5115879;28;20034;-75
2023/04/09 05:05:17;;;;;;;52.95;26.70;;;;;;;5.22;100.00;102651.13;5115881;28;20028;-75
2023/04/09 05:07:42;;;;;;;59.30;28.48;;;;;;;5.26;100.00;102650.09;5115774;28;20035;-76
2023/04/09 05:10:08;;;;;;;54.35;26.80;;;;;;;5.34;100.00;102649.78;5115918;28;20376;-76
2023/04/09 05:12:34;;;;;;;53.45;25.75;;;;;;;5.37;100.00;102646.16;5116712;28;20027;-76
2023/04/09 05:14:59;;;;;;;52.58;26.60;;;;;;;5.41;100.00;102653.03;5097577;28;20122;-76
2023/04/09 05:17:25;;;;;;;56.20;27.42;;;;;;;5.44;100.00;102651.13;5115622;28;20029;-76
2023/04/09 05:19:53;;;;;;;55.17;26.08;;;;;;;5.48;100.00;102651.88;5116525;28;20027;-76
2023/04/09 05:22:19;;;;;;;53.78;28.10;;;;;;;5.51;100.00;102645.59;5097492;28;20063;-76
2023/04/09 05:24:45;;;;;;;47.83;25.98;;;;;;;5.56;100.00;102643.66;5115769;28;20051;-76
2023/04/09 05:27:10;;;;;;;51.60;26.25;;;;;;;5.57;100.00;102638.31;5116326;28;20028;-76
2023/04/09 05:29:36;;;;;;;52.40;26.85;;;;;;;5.61;100.00;102645.19;5115551;28;20024;-76
2023/04/09 05:32:01;;;;;;;49.20;26.50;;;;;;;5.64;100.00;102639.78;5115500;28;20019;-76
2023/04/09 05:34:26;;;;;;;52.90;27.17;;;;;;;5.70;100.00;102641.28;5115635;28;20064;-76
2023/04/09 05:36:53;;;;;;;51.88;25.90;;;;;;;5.75;100.00;102647.25;5115926;28;20071;-76
2023/04/09 05:39:18;;;;;;;52.47;26.55;;;;;;;5.79;100.00;102647.97;5115286;28;20020;-76
2023/04/09 05:41:44;;;;;;;56.90;26.67;;;;;;;5.83;100.00;102649.56;5115566;28;20035;-76
2023/04/09 05:44:10;;;;;;;53.33;26.70;;;;;;;5.87;100.00;102648.53;5115461;28;20500;-75
2023/04/09 05:46:36;;;;;;;49.70;26.25;;;;;;;5.93;100.00;102652.69;5115683;28;20098;-76
2023/04/09 05:49:02;;;;;;;52.00;26.48;;;;;;;5.97;100.00;102647.25;5096764;28;20114;-75
2023/04/09 05:51:27;;;;;;;49.75;26.58;;;;;;;6.03;100.00;102651.44;5114836;28;20036;-75
2023/04/09 05:53:52;;;;;;;51.85;26.05;;;;;;;6.07;100.00;102658.28;5115045;28;20032;-76
2023/04/09 05:56:18;;;;;;;56.80;28.13;;;;;;;6.11;100.00;102654.59;5114555;28;20123;-76
2023/04/09 05:58:43;;;;;;;54.97;27.17;;;;;;;6.17;100.00;102656.13;5097240;28;20415;-75
2023/04/09 06:01:09;;;;;;;49.78;26.67;;;;;;;6.23;100.00;102661.13;5096474;28;20469;-74
2023/04/09 06:03:35;;;;;;;54.53;26.73;;;;;;;6.27;100.00;102652.16;5115269;28;20342;-75
2023/04/09 06:06:00;;;;;;;52.45;26.48;;;;;;;6.33;100.00;102659.81;5096289;28;20062;-75
2023/04/09 06:08:25;;;;;;;48.30;25.70;;;;;;;6.37;100.00;102651.75;5114659;28;20098;-76
2023/04/09 06:10:51;;;;;;;47.47;26.05;;;;;;;6.41;100.00;102648.03;5114477;28;20032;-75
2023/04/09 06:13:16;;;;;;;54.75;27.95;;;;;;;6.46;100.00;102656.63;5096579;28;20073;-77
2023/04/09 06:15:41;;;;;;;50.33;25.50;;;;;;;6.51;100.00;102652.00;5115230;28;20027;-75
2023/04/09 06:18:07;;;;;;;50.30;26.10;;;;;;;6.54;100.00;102657.16;5114606;28;20107;-74
2023/04/09 06:20:32;;;;;;;53.05;26.25;;;;;;;6.60;100.00;102659.53;5114857;28;20432;-76
2023/04/09 06:22:58;;;;;;;49.95;25.48;;;;;;;6.65;100.00;102652.22;5114648;28;20027;-76
2023/04/09 06:25:23;;;;;;;49.25;26.50;;;;;;;6.70;100.00;102655.53;5114519;28;20031;-75
2023/04/09 06:27:48;;;;;;;48.00;25.50;;;;;;;6.75;100.00;102659.72;5114261;28;20421;-75
2023/04/09 06:30:14;;;;;;;49.15;25.77;;;;;;;6.80;100.00;102666.53;5114183;28;20062;-75
2023/04/09 06:32:39;;;;;;;47.40;23.98;;;;;;;6.84;100.00;102660.19;5114257;28;20111;-75
2023/04/09 06:35:07;;;;;;;44.70;23.20;;;;;;;6.90;100.00;102667.00;5114353;28;20028;-75
2023/04/09 06:37:32;;;;;;;42.20;23.75;;;;;;;6.96;100.00;102664.06;5114646;28;20028;-75
2023/04/09 06:39:58;;;;;;;42.75;24.48;;;;;;;7.01;100.00;102666.50;5114204;28;20476;-75
2023/04/09 06:42:23;;;;;;;46.08;25.27;;;;;;;7.09;100.00;102671.41;5114477;28;20031;-76
2023/04/09 06:44:49;;;;;;;45.33;25.27;;;;;;;7.15;100.00;102669.38;5096011;28;20035;-74
2023/04/09 06:47:14;;;;;;;43.58;25.45;;;;;;;7.21;100.00;102668.19;5114045;28;20032;-75
2023/04/09 06:49:40;;;;;;;48.05;24.95;;;;;;;7.24;100.00;102658.34;5113873;28;20088;-74
2023/04/09 06:52:06;;;;;;;50.05;25.33;;;;;;;7.30;100.00;102667.78;5113890;28;20381;-75
2023/04/09 06:54:31;;;;;;;43.55;25.20;;;;;;;7.33;100.00;102653.50;5095948;28;20026;-75
2023/04/09 06:56:57;;;;;;;42.63;24.13;;;;;;;7.37;100.00;102663.88;5114262;28;20047;-75
2023/04/09 06:59:22;;;;;;;40.50;24.30;;;;;;;7.43;100.00;102661.88;5114194;28;20059;-75
2023/04/09 07:01:48;;;;;;;41.05;24.27;;;;;;;7.48;100.00;102667.81;5095758;28;20460;-75
2023/04/09 07:04:13;;;;;;;40.08;23.38;;;;;;;7.54;100.00;102659.59;5113820;28;20027;-76
2023/04/09 07:06:39;;;;;;;39.92;23.52;;;;;;;7.58;100.00;102655.84;5113913;28;20038;-75
2023/04/09 07:09:05;;;;;;;41.92;23.33;;;;;;;7.63;100.00;102666.22;5113910;28;20023;-76
2023/04/09 07:11:31;;;;;;;38.75;23.33;;;;;;;7.65;100.00;102654.59;5095507;28;20059;-75
2023/04/09 07:13:58;;;;;;;40.65;23.80;;;;;;;7.70;100.00;102657.91;5113772;28;20065;-75
2023/04/09 07:16:23;;;;;;;41.28;23.55;;;;;;;7.77;100.00;102656.63;5113680;28;20032;-74
2023/04/09 07:18:49;;;;;;;40.22;23.13;;;;;;;7.81;100.00;102648.53;5113918;28;20031;-75
2023/04/09 07:21:15;;;;;;;40.80;23.27;;;;;;;7.86;100.00;102649.19;5113414;28;20027;-74
2023/04/09 07:23:41;;;;;;;38.55;22.80;;;;;;;7.90;100.00;102648.09;5114372;28;20106;-75
2023/04/09 07:26:06;;;;;;;37.53;22.25;;;;;;;7.95;100.00;102651.34;5113604;28;20464;-77
2023/04/09 07:28:32;;;;;;;40.05;22.55;;;;;;;7.97;100.00;102649.47;5129876;27;20482;-77
2023/04/09 07:31:01;;;;;;;36.30;22.10;;;;;;;8.03;100.00;102649.19;5113824;28;20128;-77
2023/04/09 07:33:26;;;;;;;36.28;22.50;;;;;;;8.07;100.00;102653.38;5113816;28;20099;-76
2023/04/09 07:35:52;;;;;;;37.65;22.77;;;;;;;8.11;100.00;102647.00;5113280;28;20532;-76
2023/04/09 07:38:17;;;;;;;37.10;22.85;;;;;;;8.14;100.00;102655.75;5113444;28;20102;-76
2023/04/09 07:40:42;;;;;;;36.00;22.17;;;;;;;8.17;100.00;102660.88;5113259;28;20031;-73
2023/04/09 07:43:08;;;;;;;38.05;23.13;;;;;;;8.20;100.00;102658.06;5113699;28;20027;-74
2023/04/09 07:45:33;;;;;;;36.70;22.98;;;;;;;8.22;100.00;102656.19;5095092;28;20172;-72
2023/04/09 07:47:59;;;;;;;36.80;22.30;;;;;;;8.27;100.00;102654.16;5113106;28;20035;-73
2023/04/09 07:50:25;;;;;;;44.03;22.35;;;;;;;8.30;100.00;102654.88;5113240;28;20039;-73
2023/04/09 07:52:50;;;;;;;39.45;23.58;;;;;;;8.35;100.00;102648.47;5114128;28;20024;-73
2023/04/09 07:55:15;;;;;;;41.47;23.02;;;;;;;8.40;100.00;102643.75;5095460;28;20360;-72
2023/04/09 07:57:41;;;;;;;44.33;23.30;;;;;;;8.39;100.00;102644.69;5113376;28;20407;-72
2023/04/09 08:00:08;;;;;;;42.55;24.92;;;;;;;8.44;100.00;102640.91;5094787;28;20472;-72
2023/04/09 08:02:33;;;;;;;48.13;25.05;;;;;;;8.46;100.00;102647.00;5112693;28;20050;-72
2023/04/09 08:04:59;;;;;;;44.55;24.40;;;;;;;8.48;100.00;102641.59;5112839;28;20027;-74
2023/04/09 08:07:24;;;;;;;44.40;25.50;;;;;;;8.53;100.00;102649.31;5095072;28;20042;-72
2023/04/09 08:09:49;;;;;;;46.65;24.63;;;;;;;8.54;100.00;102643.94;5095020;28;20059;-72
2023/04/09 08:12:15;;;;;;;53.28;26.90;;;;;;;8.53;100.00;102646.66;5113361;28;20024;-73
2023/04/09 08:14:40;;;;;;;55.75;27.92;;;;;;;8.53;100.00;102650.16;5113215;28;20479;-72
2023/04/09 08:17:05;;;;;;;59.17;28.40;;;;;;;8.55;100.00;102647.44;5112890;28;20110;-73
2023/04/09 08:19:31;;;;;;;58.80;28.88;;;;;;;8.55;100.00;102645.63;5112753;28;20054;-72
2023/04/09 08:21:57;;;;;;;52.72;27.40;;;;;;;8.57;100.00;102651.72;5112759;28;20031;-72
2023/04/09 08:24:23;;;;;;;52.33;27.17;;;;;;;8.59;100.00;102644.53;5112660;28;20039;-71
2023/04/09 08:26:48;;;;;;;54.95;27.98;;;;;;;8.60;100.00;102650.72;5113202;28;20043;-71
2023/04/09 08:29:14;;;;;;;57.90;29.00;;;;;;;8.62;100.00;102654.13;5112705;28;20029;-72
2023/04/09 08:31:40;;;;;;;59.95;28.73;;;;;;;8.61;100.00;102647.97;5112996;28;20024;-73
2023/04/09 08:34:05;;;;;;;67.95;30.95;;;;;;;8.60;100.00;102653.38;5114665;28;20031;-72
2023/04/09 08:36:31;;;;;;;66.13;31.40;;;;;;;8.61;100.00;102655.06;5116669;28;20476;-72
2023/04/09 08:38:57;;;;;;;66.15;30.27;;;;;;;8.60;100.00;102650.72;5116318;28;20088;-73
2023/04/09 08:41:24;;;;;;;72.07;32.45;;;;;;;8.57;100.00;102661.47;5116182;28;20046;-73
2023/04/09 08:43:51;;;;;;;71.60;33.22;;;;;;;8.58;100.00;102661.41;5116192;28;20024;-75
2023/04/09 08:46:19;;;;;;;69.32;34.22;;;;;;;8.62;100.00;102652.31;5116187;28;20058;-73
2023/04/09 08:48:46;;;;;;;74.90;34.15;;;;;;;8.63;100.00;102659.34;5097710;28;20028;-73
2023/04/09 08:51:13;;;;;;;73.82;33.25;;;;;;;8.65;100.00;102662.78;5097809;28;20028;-73
2023/04/09 08:53:43;;;;;;;72.68;33.50;;;;;;;8.69;100.00;102652.00;5116050;28;20031;-73
2023/04/09 08:56:08;;;;;;;68.45;33.22;;;;;;;8.73;100.00;102658.84;5115968;28;20099;-73
2023/04/09 08:58:34;;;;;;;73.72;33.75;;;;;;;8.75;100.00;102657.00;5116067;28;20067;-72
2023/04/09 09:01:00;;;;;;;66.32;32.00;;;;;;;8.73;100.00;102649.13;5098024;28;20106;-73
2023/04/09 09:03:26;;;;;;;71.13;33.65;;;;;;;8.74;100.00;102655.28;5115775;28;20031;-74
2023/04/09 09:05:51;;;;;;;75.70;34.08;;;;;;;8.78;100.00;102655.03;5115892;28;20357;-72
2023/04/09 09:08:24;;;;;;;67.70;33.42;;;;;;;8.83;100.00;102650.31;5115884;28;20349;-74
2023/04/09 09:10:50;;;;;;;66.78;33.33;;;;;;;8.86;100.00;102656.41;5115755;28;20020;-73
2023/04/09 09:13:24;;;;;;;69.65;32.88;;;;;;;8.83;100.00;102652.97;5116520;28;20445;-73
2023/04/09 09:15:53;;;;;;;72.28;34.00;;;;;;;8.86;100.00;102646.63;5116078;28;20476;-73
2023/04/09 09:18:20;;;;;;;71.57;34.47;;;;;;;8.90;100.00;102652.66;5115914;28;20060;-73
2023/04/09 09:20:46;;;;;;;70.70;35.70;;;;;;;8.87;100.00;102644.81;5115650;28;20060;-74
2023/04/09 09:23:11;;;;;;;71.40;35.60;;;;;;;8.93;100.00;102649.84;5115622;28;20039;-74
2023/04/09 09:25:38;;;;;;;72.50;33.67;;;;;;;8.96;100.00;102652.31;5096956;28;20030;-75
2023/04/09 09:28:11;;;;;;;74.10;35.13;;;;;;;9.02;100.00;102649.31;5115703;28;20028;-74
2023/04/09 09:30:38;;;;;;;74.07;35.97;;;;;;;9.07;100.00;102649.06;5115585;28;20092;-75
2023/04/09 09:33:11;;;;;;;78.70;36.63;;;;;;;9.12;100.00;102645.22;5115442;28;20461;-74
2023/04/09 09:35:52;;;;;;;77.68;36.70;;;;;;;9.11;100.00;102643.50;5115151;28;20023;-74
2023/04/09 09:38:18;;;;;;;77.88;36.67;;;;;;;9.13;100.00;102646.06;5115634;28;20106;-74
2023/04/09 09:40:44;;;;;;;71.55;36.30;;;;;;;9.11;100.00;102647.97;5115609;28;20119;-75
2023/04/09 09:43:09;;;;;;;72.20;34.88;;;;;;;9.09;100.00;102641.84;5097077;28;20109;-75
2023/04/09 09:45:36;;;;;;;69.07;35.97;;;;;;;9.05;100.00;102643.84;5115532;28;20468;-75
2023/04/09 09:48:02;;;;;;;64.57;33.50;;;;;;;9.08;100.00;102637.50;5115235;28;20338;-75
2023/04/09 09:50:30;;;;;;;63.45;33.72;;;;;;;9.10;100.00;102628.50;5114978;28;20053;-75
2023/04/09 09:53:03;;;;;;;64.28;36.08;;;;;;;9.13;100.00;102633.63;5097398;28;20356;-74
2023/04/09 09:55:33;;;;;;;62.58;34.13;;;;;;;9.08;100.00;102624.22;5115674;28;20016;-76
2023/04/09 09:58:01;;;;;;;67.68;34.58;;;;;;;9.04;100.00;102626.19;5114644;28;20047;-74
2023/04/09 10:00:29;;;;;;;65.95;34.20;;;;;;;9.07;100.00;102625.16;5114825;28;20077;-73
2023/04/09 10:02:57;;;;;;;66.82;35.08;;;;;;;9.08;100.00;102613.59;5114548;28;20019;-73
2023/04/09 10:05:26;;;;;;;67.88;34.25;;;;;;;9.13;100.00;102612.38;5114659;28;20111;-74
2023/04/09 10:07:56;;;;;;;68.60;34.83;;;;;;;9.20;100.00;102609.41;5114949;28;20046;-74
2023/04/09 10:10:23;;;;;;;67.90;35.72;;;;;;;9.25;100.00;102620.63;5114699;28;20028;-74
2023/04/09 10:12:51;;;;;;;68.18;35.13;;;;;;;9.31;100.00;102615.78;5096674;28;20102;-75
2023/04/09 10:15:17;;;;;;;64.78;33.83;;;;;;;9.39;100.00;102620.69;5114502;28;20083;-73
2023/04/09 10:17:43;;;;;;;66.25;34.88;;;;;;;9.44;100.00;102618.63;5096419;28;20035;-75
2023/04/09 10:20:18;;;;;;;66.72;35.67;;;;;;;9.46;100.00;102619.38;5114438;28;20023;-76
2023/04/09 10:22:48;;;;;;;58.55;33.70;;;;;;;9.51;100.00;102609.34;5114769;28;20023;-79
2023/04/09 10:25:15;;;;;;;62.35;34.58;;;;;;;9.66;100.00;102607.59;5114547;28;20027;-74
2023/04/09 10:27:45;;;;;;;64.50;33.50;;;;;;;9.76;100.00;102607.06;5114318;28;20065;-73
2023/04/09 10:30:30;;;;;;;62.83;34.03;;;;;;;9.80;100.00;102598.81;5114370;28;20027;-73
2023/04/09 10:33:10;;;;;;;63.17;33.53;;;;;;;9.87;100.00;102597.50;5114421;28;20544;-72
2023/04/09 10:35:35;;;;;;;60.10;33.28;;;;;;;10.04;100.00;102592.97;5114653;28;20054;-72
2023/04/09 10:38:01;;;;;;;61.17;33.10;;;;;;;10.15;100.00;102593.19;5114596;28;20441;-73
2023/04/09 10:40:27;;;;;;;68.30;35.72;;;;;;;10.25;100.00;102588.13;5113883;28;20107;-73
2023/04/09 10:42:54;;;;;;;60.72;33.63;;;;;;;10.38;100.00;102588.28;5114239;28;20042;-72
2023/04/09 10:45:20;;;;;;;58.85;33.45;;;;;;;10.60;100.00;102587.81;5095799;28;20027;-73
2023/04/09 10:47:50;;;;;;;58.95;33.47;;;;;;;10.76;100.00;102585.00;5114458;28;20031;-72
2023/04/09 10:50:19;;;;;;;61.65;35.10;;;;;;;10.90;100.00;102578.81;5114432;28;20026;-73
2023/04/09 10:52:46;;;;;;;59.45;33.67;;;;;;;11.18;100.00;102582.34;5114157;28;20469;-73
2023/04/09 10:55:35;;;;;;;61.60;34.35;;;;;;;11.43;100.00;102578.91;5113665;28;20105;-73
2023/04/09 10:58:05;;;;;;;58.22;33.08;;;;;;;11.71;100.00;102577.91;5114306;28;20089;-73
2023/04/09 11:00:35;;;;;;;59.50;32.88;;;;;;;11.80;100.00;102568.44;5095729;28;20484;-73
2023/04/09 11:03:21;;;;;;;58.78;32.80;;;;;;;12.22;100.00;102563.78;5114484;28;20073;-73
2023/04/09 11:05:54;;;;;;;54.75;31.58;;;;;;;12.66;100.00;102554.41;5096075;28;20065;-73
2023/04/09 11:08:20;;;;;;;55.35;31.85;;;;;;;12.76;100.00;102554.59;5095633;28;20160;-73